Honolulu, HI (96815)

12:17 AM HST on September 16, 2014 (GMT -1000)
Allure Waikiki | Change Station
CLOSE
Current Station
Personal Weather Station
Location: Honolulu, HI
Elevation: 39 ft
Nearby Weather Stations
Active Advisory: High Surf Advisory Active Notice: Record Report

Elev 39 ft 21.29 °N, 157.83 °W | Updated 13 minutes ago

Partly Cloudy
Partly Cloudy
80.1 °F
Feels Like 83 °F
N
0.0
Wind Variable Wind from NNE

Today
High -- | Low -- °F
--% Chance of Precip.
Yesterday
High -- | Low -- °F
Precip. -- in
6:18 AM 6:33 PM
Waning Gibbous, 47% visible
Pressure 29.95 in
Visibility 10.0 miles
Clouds Few 3100 ft
Heat Index 83 °F
Dew Point 69 °F
Humidity 70%
Rainfall 0.00 in
Snow Depth Not available.
UV 0 out of 12
Pollen Not available.
Air Quality Not available.
Flu Activity Not available.
METAR PHNL 160953Z 00000KT 10SM FEW031 26/20 A2995 RMK AO2 SLP142 T02610200 403280244 $

More Conditions Fewer Conditions

Pressure 29.95 in
Visibility 10.0 miles
Clouds Few 3100 ft
Heat Index 83 °F
Dew Point 69 °F
Humidity 70%
Rainfall 0.00 in
Snow Depth Not available.
UV 0 out of 12
Pollen Not available.
Air Quality Not available.
Flu Activity Not available.
METAR PHNL 160953Z 00000KT 10SM FEW031 26/20 A2995 RMK AO2 SLP142 T02610200 403280244 $

More Conditions Fewer Conditions

10-Day Weather Forecast

Almanac

Astronomy

Sep. 16, 2014 Rise Set
Actual Time 6:18 AM HST 6:33 PM HST
Civil Twilight 5:56 AM HST 6:55 PM HST
Nautical Twilight 5:30 AM HST 7:21 PM HST
Astronomical Twilight 5:04 AM HST 7:47 PM HST
Moon 12:09 AM HST 1:34 PM HST
Length of Visible Light 12h 58m
Length of Day
12h 14m
Tomorrow will be 1m 12s shorter.
Waning Gibbous, 47% of the Moon is Illuminated
Today
Waning Gibbous
Sep 24
New
Oct 1
First Quarter
Oct 8
Full
Oct 15
Last Quarter

Today's Extremes

State Highs State Lows

Community

WunderPhotos

Upload Photos

1,753,717 photos uploaded!

WunderBlogs® & News

Nearby

Snow Depth

Station Depth Elevation
No new snow has been reported.

Earthquake Activity

City Distance Mag. Time & Date
No recent earthquake activity has been reported nearby.
Minimum magnitude displayed is 2.5.

Coastal Water Temperatures

Place Temperature
No Stations Reporting

Nearby Weather Stations